Time,TemperatureF,DewpointF,PressureIn,WindDirection,WindDirectionDegrees,WindSpeedMPH,WindSpeedGustMPH,Humidity,HourlyPrecipIn,Conditions,Clouds,dailyrainin,SoftwareType,DateUTC
2017-12-15 00:04:00,61.6,55.7,29.84,SSW,206,11.5,11.5,81,0.00,CLR,,0.00,WeatherDisplay:10.37,2017-12-14 23:04:00,
2017-12-15 00:09:00,61.5,55.3,29.84,WSW,251,12.7,12.7,80,0.00,CLR,,0.00,WeatherDisplay:10.37,2017-12-14 23:09:00,
2017-12-15 00:14:00,61.6,55.7,29.83,SW,218,10.4,10.4,81,0.00,CLR,,0.00,WeatherDisplay:10.37,2017-12-14 23:14:00,
2017-12-15 00:19:00,61.6,55.7,29.83,WSW,248,11.5,11.5,81,0.00,CLR,,0.00,WeatherDisplay:10.37,2017-12-14 23:19:00,
2017-12-15 00:24:00,61.6,55.7,29.83,SW,218,12.7,12.7,81,0.00,CLR,,0.00,WeatherDisplay:10.37,2017-12-14 23:24:00,
2017-12-15 00:29:00,61.6,55.7,29.83,SW,227,10.4,10.4,81,0.00,CLR,,0.00,WeatherDisplay:10.37,2017-12-14 23:29:00,
2017-12-15 00:34:00,61.6,55.7,29.83,SW,217,10.4,10.4,81,0.00,CLR,,0.00,WeatherDisplay:10.37,2017-12-14 23:34:00,
2017-12-15 00:39:00,61.5,55.6,29.82,WSW,238,17.0,17.0,81,0.00,CLR,,0.00,WeatherDisplay:10.37,2017-12-14 23:39:00,
2017-12-15 00:44:00,61.6,55.7,29.82,SW,227,12.7,12.7,81,0.00,CLR,,0.00,WeatherDisplay:10.37,2017-12-14 23:44:00,
2017-12-15 00:49:00,61.6,55.7,29.82,SW,232,12.7,12.7,81,0.00,CLR,,0.00,WeatherDisplay:10.37,2017-12-14 23:49:00,
2017-12-15 00:54:00,61.4,55.5,29.81,WSW,256,15.0,15.0,81,0.00,CLR,,0.00,WeatherDisplay:10.37,2017-12-14 23:54:00,
2017-12-15 00:59:00,61.4,55.5,29.81,SW,234,12.7,12.7,81,0.00,CLR,,0.00,WeatherDisplay:10.37,2017-12-14 23:59:00,
2017-12-15 01:04:00,61.4,55.5,29.81,West,260,15.0,15.0,81,0.00,CLR,,0.00,WeatherDisplay:10.37,2017-12-15 00:04:00,
2017-12-15 01:09:00,61.4,55.5,29.80,WSW,244,11.5,11.5,81,0.00,CLR,,0.00,WeatherDisplay:10.37,2017-12-15 00:09:00,
2017-12-15 01:14:00,61.5,56.0,29.80,SW,229,11.5,11.5,82,0.00,CLR,,0.00,WeatherDisplay:10.37,2017-12-15 00:14:00,
2017-12-15 01:19:00,61.5,56.0,29.80,WSW,256,10.4,10.4,82,0.00,CLR,,0.00,WeatherDisplay:10.37,2017-12-15 00:19:00,
2017-12-15 01:24:00,61.5,56.0,29.79,WSW,248,11.5,11.5,82,0.00,CLR,,0.00,WeatherDisplay:10.37,2017-12-15 00:24:00,
2017-12-15 01:27:00,61.5,56.0,29.79,WSW,252,16.1,16.1,82,0.00,CLR,,0.00,WeatherDisplay:10.37,2017-12-15 00:27:00,
2017-12-15 01:32:00,61.8,56.2,29.79,WSW,257,18.4,18.4,82,0.00,CLR,,0.00,WeatherDisplay:10.37,2017-12-15 00:32:00,
2017-12-15 01:37:00,61.8,56.6,29.79,WSW,237,19.0,19.0,83,0.00,CLR,,0.00,WeatherDisplay:10.37,2017-12-15 00:37:00,
2017-12-15 01:42:00,61.8,56.2,29.78,SW,225,13.8,13.8,82,0.00,CLR,,0.00,WeatherDisplay:10.37,2017-12-15 00:42:00,
2017-12-15 01:47:00,61.6,56.0,29.78,WSW,257,20.7,20.7,82,0.00,CLR,,0.00,WeatherDisplay:10.37,2017-12-15 00:47:00,
2017-12-15 01:52:00,61.7,56.1,29.78,WSW,244,19.6,19.6,82,0.00,CLR,,0.00,WeatherDisplay:10.37,2017-12-15 00:52:00,
2017-12-15 01:57:00,61.8,55.9,29.78,SW,223,19.6,19.6,81,0.00,CLR,,0.00,WeatherDisplay:10.37,2017-12-15 00:57:00,
2017-12-15 02:02:00,61.8,55.9,29.78,SW,233,16.1,16.1,81,0.00,CLR,,0.00,WeatherDisplay:10.37,2017-12-15 01:02:00,
2017-12-15 02:08:00,61.8,55.9,29.77,WSW,254,16.1,16.1,81,0.00,CLR,,0.00,WeatherDisplay:10.37,2017-12-15 01:08:00,
2017-12-15 02:13:00,61.8,55.9,29.78,SW,223,18.4,18.4,81,0.00,CLR,,0.00,WeatherDisplay:10.37,2017-12-15 01:13:00,
2017-12-15 02:17:00,61.8,55.9,29.78,WSW,247,19.6,19.6,81,0.00,CLR,,0.00,WeatherDisplay:10.37,2017-12-15 01:17:00,
2017-12-15 02:22:00,61.8,56.2,29.77,SW,227,16.1,16.1,82,0.00,CLR,,0.00,WeatherDisplay:10.37,2017-12-15 01:22:00,
2017-12-15 02:27:00,61.6,55.7,29.77,West,267,16.1,16.1,81,0.00,CLR,,0.00,WeatherDisplay:10.37,2017-12-15 01:27:00,
2017-12-15 02:32:00,61.6,55.7,29.78,WNW,284,15.0,15.0,81,0.00,CLR,,0.00,WeatherDisplay:10.37,2017-12-15 01:32:00,
2017-12-15 02:37:00,61.7,55.8,29.78,West,281,13.8,13.8,81,0.00,CLR,,0.00,WeatherDisplay:10.37,2017-12-15 01:37:00,
2017-12-15 02:42:00,61.6,55.7,29.77,WSW,246,16.1,16.1,81,0.00,CLR,,0.00,WeatherDisplay:10.37,2017-12-15 01:42:00,
2017-12-15 02:47:00,61.7,55.8,29.77,SSW,211,17.3,17.3,81,0.00,CLR,,0.00,WeatherDisplay:10.37,2017-12-15 01:47:00,
2017-12-15 02:52:00,61.6,55.7,29.77,WSW,248,13.8,13.8,81,0.00,CLR,,0.00,WeatherDisplay:10.37,2017-12-15 01:52:00,
2017-12-15 02:57:00,61.6,55.7,29.77,WSW,242,19.6,19.6,81,0.00,CLR,,0.00,WeatherDisplay:10.37,2017-12-15 01:57:00,
2017-12-15 03:02:00,61.6,56.0,29.77,West,264,15.0,15.0,82,0.00,CLR,,0.00,WeatherDisplay:10.37,2017-12-15 02:02:00,
2017-12-15 03:07:00,61.5,56.0,29.77,WSW,253,12.7,12.7,82,0.00,CLR,,0.00,WeatherDisplay:10.37,2017-12-15 02:07:00,
2017-12-15 03:12:00,61.6,56.0,29.77,WSW,243,18.4,18.4,82,0.00,CLR,,0.00,WeatherDisplay:10.37,2017-12-15 02:12:00,
2017-12-15 03:17:00,61.7,55.8,29.77,West,267,16.1,16.1,81,0.00,CLR,,0.00,WeatherDisplay:10.37,2017-12-15 02:17:00,
2017-12-15 03:22:00,61.8,56.2,29.77,West,262,16.1,16.1,82,0.00,CLR,,0.00,WeatherDisplay:10.37,2017-12-15 02:22:00,
2017-12-15 03:27:00,61.8,55.9,29.77,West,271,19.6,19.6,81,0.00,CLR,,0.00,WeatherDisplay:10.37,2017-12-15 02:27:00,
2017-12-15 03:32:00,61.8,56.2,29.77,West,269,16.1,16.1,82,0.00,CLR,,0.00,WeatherDisplay:10.37,2017-12-15 02:32:00,
2017-12-15 03:37:00,61.8,56.2,29.77,SW,236,18.4,18.4,82,0.00,CLR,,0.00,WeatherDisplay:10.37,2017-12-15 02:37:00,
2017-12-15 03:42:00,61.8,55.9,29.77,WSW,242,25.0,25.0,81,0.00,CLR,,0.00,WeatherDisplay:10.37,2017-12-15 02:42:00,
2017-12-15 03:47:00,61.8,55.9,29.76,WSW,252,20.7,20.7,81,0.00,CLR,,0.00,WeatherDisplay:10.37,2017-12-15 02:47:00,
2017-12-15 03:50:00,62.7,55.7,29.71,WSW,245,12.0,18.0,78,0.00,CLR,,0.00,WeatherDisplay:10.37,2017-12-15 02:50:00,
2017-12-15 03:52:00,61.9,56.0,29.76,WSW,244,23.0,23.0,81,0.00,CLR,,0.00,WeatherDisplay:10.37,2017-12-15 02:52:00,
2017-12-15 03:57:00,62.0,56.1,29.76,SW,229,20.0,20.0,81,0.00,CLR,,0.00,WeatherDisplay:10.37,2017-12-15 02:57:00,
2017-12-15 04:02:00,62.0,56.1,29.76,WSW,237,18.4,18.4,81,0.00,CLR,,0.00,WeatherDisplay:10.37,2017-12-15 03:02:00,
2017-12-15 04:05:00,62.6,56.0,29.71,WSW,246,10.0,16.0,79,0.00,CLR,,0.00,WeatherDisplay:10.37,2017-12-15 03:05:00,
2017-12-15 04:07:00,62.0,56.1,29.76,SW,236,24.2,24.2,81,0.00,CLR,,0.00,WeatherDisplay:10.37,2017-12-15 03:07:00,
2017-12-15 04:10:00,62.6,56.0,29.71,WSW,248,10.0,16.0,79,0.00,CLR,,0.00,WeatherDisplay:10.37,2017-12-15 03:10:00,
2017-12-15 04:12:00,62.0,56.1,29.76,SW,227,19.6,19.6,81,0.00,CLR,,0.00,WeatherDisplay:10.37,2017-12-15 03:12:00,
2017-12-15 04:15:00,62.7,55.4,29.71,WSW,248,12.0,18.0,77,0.00,CLR,,0.00,WeatherDisplay:10.37,2017-12-15 03:15:00,
2017-12-15 04:17:00,62.0,55.8,29.76,SW,223,19.6,19.6,80,0.00,CLR,,0.00,WeatherDisplay:10.37,2017-12-15 03:17:00,
2017-12-15 04:20:00,62.7,55.4,29.71,WSW,248,12.0,18.0,77,0.00,CLR,,0.00,WeatherDisplay:10.37,2017-12-15 03:20:00,
2017-12-15 04:25:00,62.9,55.6,29.71,WSW,248,10.0,16.0,77,0.00,CLR,,0.00,WeatherDisplay:10.37,2017-12-15 03:25:00,
2017-12-15 04:27:00,62.0,56.1,29.75,SW,223,19.6,19.6,81,0.00,CLR,,0.00,WeatherDisplay:10.37,2017-12-15 03:27:00,
2017-12-15 04:30:00,62.9,55.6,29.71,WSW,248,10.0,16.0,77,0.00,CLR,,0.00,WeatherDisplay:10.37,2017-12-15 03:30:00,
2017-12-15 04:32:00,62.1,56.2,29.75,SW,235,19.6,19.6,81,0.00,CLR,,0.00,WeatherDisplay:10.37,2017-12-15 03:32:00,
2017-12-15 04:35:00,63.2,55.5,29.72,WSW,248,8.0,14.0,76,0.00,CLR,,0.00,WeatherDisplay:10.37,2017-12-15 03:35:00,
2017-12-15 04:37:00,62.0,55.8,29.75,WSW,239,24.2,24.2,80,0.00,CLR,,0.00,WeatherDisplay:10.37,2017-12-15 03:37:00,
2017-12-15 04:40:00,63.2,55.5,29.72,WSW,248,8.0,14.0,76,0.00,CLR,,0.00,WeatherDisplay:10.37,2017-12-15 03:40:00,
2017-12-15 04:42:00,62.1,56.2,29.75,WSW,242,19.6,19.6,81,0.00,CLR,,0.00,WeatherDisplay:10.37,2017-12-15 03:42:00,
2017-12-15 04:47:00,62.1,56.2,29.75,WSW,248,19.6,19.6,81,0.00,CLR,,0.00,WeatherDisplay:10.37,2017-12-15 03:47:00,
2017-12-15 04:52:00,62.1,56.2,29.75,WSW,246,19.6,19.6,81,0.00,CLR,,0.00,WeatherDisplay:10.37,2017-12-15 03:52:00,
2017-12-15 04:57:00,62.1,55.9,29.75,WSW,246,21.9,21.9,80,0.00,CLR,,0.00,WeatherDisplay:10.37,2017-12-15 03:57:00,
2017-12-15 05:02:00,62.2,56.3,29.75,SW,224,16.0,16.0,81,0.00,CLR,,0.00,WeatherDisplay:10.37,2017-12-15 04:02:00,
2017-12-15 05:07:00,62.2,56.3,29.75,WSW,240,18.0,18.0,81,0.00,CLR,,0.00,WeatherDisplay:10.37,2017-12-15 04:07:00,
2017-12-15 05:12:00,62.1,55.9,29.75,WSW,243,21.9,21.9,80,0.00,CLR,,0.00,WeatherDisplay:10.37,2017-12-15 04:12:00,
2017-12-15 05:17:00,62.2,56.0,29.74,SW,229,18.4,18.4,80,0.00,CLR,,0.00,WeatherDisplay:10.37,2017-12-15 04:17:00,
2017-12-15 05:22:00,62.2,56.0,29.74,WSW,249,19.6,19.6,80,0.00,CLR,,0.00,WeatherDisplay:10.37,2017-12-15 04:22:00,
2017-12-15 05:27:00,62.3,56.0,29.74,West,281,19.6,19.6,80,0.00,CLR,,0.00,WeatherDisplay:10.37,2017-12-15 04:27:00,
2017-12-15 05:32:00,62.3,56.0,29.74,WSW,242,15.0,15.0,80,0.00,CLR,,0.00,WeatherDisplay:10.37,2017-12-15 04:32:00,
2017-12-15 05:37:00,62.4,56.1,29.74,WSW,243,19.6,19.6,80,0.00,CLR,,0.00,WeatherDisplay:10.37,2017-12-15 04:37:00,
2017-12-15 05:42:00,62.2,55.6,29.74,WSW,256,23.0,23.0,79,0.00,CLR,,0.00,WeatherDisplay:10.37,2017-12-15 04:42:00,
2017-12-15 05:45:00,62.2,56.0,29.74,WSW,258,17.3,17.3,80,0.00,CLR,,0.00,WeatherDisplay:10.37,2017-12-15 04:45:00,
2017-12-15 05:50:00,62.0,55.4,29.74,WSW,250,16.1,16.1,79,0.00,CLR,,0.00,WeatherDisplay:10.37,2017-12-15 04:50:00,
2017-12-15 05:55:00,62.0,56.1,29.74,SW,234,15.0,15.0,81,0.00,CLR,,0.00,WeatherDisplay:10.37,2017-12-15 04:55:00,
2017-12-15 06:00:00,61.8,55.6,29.74,SW,236,19.6,19.6,80,0.00,CLR,,0.00,WeatherDisplay:10.37,2017-12-15 05:00:00,
2017-12-15 06:05:00,61.7,55.8,29.74,WSW,252,19.6,19.6,81,0.00,CLR,,0.00,WeatherDisplay:10.37,2017-12-15 05:05:00,
2017-12-15 06:10:00,61.5,56.0,29.74,SW,219,16.1,16.1,82,0.00,CLR,,0.00,WeatherDisplay:10.37,2017-12-15 05:10:00,
2017-12-15 06:15:00,61.3,56.1,29.74,WSW,250,17.3,17.3,83,0.00,CLR,,0.00,WeatherDisplay:10.37,2017-12-15 05:15:00,
2017-12-15 06:20:00,61.2,56.3,29.74,WSW,244,15.0,15.0,84,0.00,CLR,,0.00,WeatherDisplay:10.37,2017-12-15 05:20:00,
2017-12-15 06:25:00,61.0,56.1,29.73,West,259,17.3,17.3,84,0.00,CLR,,0.00,WeatherDisplay:10.37,2017-12-15 05:25:00,
2017-12-15 06:30:00,60.9,56.4,29.73,SW,220,11.5,11.5,85,0.00,CLR,,0.00,WeatherDisplay:10.37,2017-12-15 05:30:00,
2017-12-15 06:35:00,60.8,56.3,29.72,SW,230,18.4,18.4,85,0.00,CLR,,0.00,WeatherDisplay:10.37,2017-12-15 05:35:00,
2017-12-15 06:40:00,60.7,56.2,29.72,WSW,252,17.3,17.3,85,0.00,CLR,,0.00,WeatherDisplay:10.37,2017-12-15 05:40:00,
2017-12-15 06:41:00,60.7,56.2,29.72,SW,234,16.1,16.1,85,0.00,CLR,,0.00,WeatherDisplay:10.37,2017-12-15 05:41:00,
2017-12-15 06:42:00,60.8,56.3,29.72,WSW,255,18.4,18.4,85,0.00,CLR,,0.00,WeatherDisplay:10.37,2017-12-15 05:42:00,
2017-12-15 06:47:00,60.8,56.3,29.71,SW,223,16.1,16.1,85,0.00,CLR,,0.00,WeatherDisplay:10.37,2017-12-15 05:47:00,
2017-12-15 06:52:00,60.8,56.3,29.71,West,261,16.1,16.1,85,0.00,CLR,,0.00,WeatherDisplay:10.37,2017-12-15 05:52:00,
2017-12-15 06:57:00,60.7,56.2,29.71,WSW,248,15.0,15.0,85,0.00,CLR,,0.00,WeatherDisplay:10.37,2017-12-15 05:57:00,
2017-12-15 07:02:00,60.8,56.3,29.72,SW,233,17.3,17.3,85,0.00,CLR,,0.00,WeatherDisplay:10.37,2017-12-15 06:02:00,
2017-12-15 07:07:00,60.8,55.9,29.71,WSW,250,18.4,18.4,84,0.00,CLR,,0.00,WeatherDisplay:10.37,2017-12-15 06:07:00,
2017-12-15 07:12:00,61.0,55.8,29.71,WSW,249,19.6,19.6,83,0.00,CLR,,0.00,WeatherDisplay:10.37,2017-12-15 06:12:00,
2017-12-15 07:17:00,61.1,55.9,29.71,SW,231,16.1,16.1,83,0.00,CLR,,0.00,WeatherDisplay:10.37,2017-12-15 06:17:00,
2017-12-15 07:22:00,61.2,56.0,29.71,SSW,213,15.0,15.0,83,0.00,CLR,,0.00,WeatherDisplay:10.37,2017-12-15 06:22:00,
2017-12-15 07:27:00,61.3,55.8,29.71,SW,234,16.1,16.1,82,0.00,CLR,,0.00,WeatherDisplay:10.37,2017-12-15 06:27:00,
2017-12-15 07:32:00,61.4,55.9,29.71,WSW,239,15.0,15.0,82,0.00,CLR,,0.00,WeatherDisplay:10.37,2017-12-15 06:32:00,
2017-12-15 07:37:00,61.5,56.0,29.71,WSW,255,11.5,11.5,82,0.00,CLR,,0.00,WeatherDisplay:10.37,2017-12-15 06:37:00,
2017-12-15 07:42:00,61.6,56.0,29.71,WSW,241,19.6,19.6,82,0.00,CLR,,0.00,WeatherDisplay:10.37,2017-12-15 06:42:00,
2017-12-15 07:47:00,61.6,56.0,29.70,WSW,237,20.0,20.0,82,0.00,CLR,,0.00,WeatherDisplay:10.37,2017-12-15 06:47:00,
2017-12-15 07:52:00,61.6,56.0,29.70,SW,232,16.1,16.1,82,0.00,CLR,,0.00,WeatherDisplay:10.37,2017-12-15 06:52:00,
2017-12-15 07:57:00,61.7,56.1,29.70,WSW,251,18.4,18.4,82,0.00,CLR,,0.00,WeatherDisplay:10.37,2017-12-15 06:57:00,
2017-12-15 08:02:00,61.7,56.1,29.70,WSW,246,17.3,17.3,82,0.00,CLR,,0.00,WeatherDisplay:10.37,2017-12-15 07:02:00,
2017-12-15 08:07:00,61.8,55.9,29.70,WSW,248,20.7,20.7,81,0.00,CLR,,0.00,WeatherDisplay:10.37,2017-12-15 07:07:00,
2017-12-15 08:12:00,61.9,55.7,29.70,WSW,242,19.6,19.6,80,0.00,CLR,,0.00,WeatherDisplay:10.37,2017-12-15 07:12:00,
2017-12-15 08:17:00,61.9,55.7,29.70,WSW,251,19.6,19.6,80,0.00,CLR,,0.00,WeatherDisplay:10.37,2017-12-15 07:17:00,
2017-12-15 08:22:00,62.0,55.8,29.70,WSW,242,19.6,19.6,80,0.00,CLR,,0.00,WeatherDisplay:10.37,2017-12-15 07:22:00,
2017-12-15 08:27:00,62.1,55.9,29.71,WSW,247,17.3,17.3,80,0.00,CLR,,0.00,WeatherDisplay:10.37,2017-12-15 07:27:00,
2017-12-15 08:32:00,62.0,55.8,29.71,WSW,257,15.0,15.0,80,0.00,CLR,,0.00,WeatherDisplay:10.37,2017-12-15 07:32:00,
2017-12-15 08:37:00,62.0,55.8,29.70,WSW,238,13.8,13.8,80,0.00,CLR,,0.00,WeatherDisplay:10.37,2017-12-15 07:37:00,
2017-12-15 08:42:00,62.1,55.9,29.70,West,265,13.8,13.8,80,0.00,CLR,,0.00,WeatherDisplay:10.37,2017-12-15 07:42:00,
2017-12-15 08:47:00,62.1,55.5,29.70,SW,235,19.6,19.6,79,0.00,CLR,,0.00,WeatherDisplay:10.37,2017-12-15 07:47:00,
2017-12-15 08:52:00,62.2,56.0,29.70,SW,232,13.8,13.8,80,0.00,CLR,,0.00,WeatherDisplay:10.37,2017-12-15 07:52:00,
2017-12-15 08:57:00,62.1,55.9,29.70,WSW,249,17.3,17.3,80,0.00,CLR,,0.00,WeatherDisplay:10.37,2017-12-15 07:57:00,
2017-12-15 09:02:00,62.1,55.9,29.70,SW,234,16.1,16.1,80,0.00,CLR,,0.00,WeatherDisplay:10.37,2017-12-15 08:02:00,
2017-12-15 09:07:00,62.1,55.5,29.70,West,264,17.3,17.3,79,0.00,CLR,,0.00,WeatherDisplay:10.37,2017-12-15 08:07:00,
2017-12-15 09:12:00,62.1,55.9,29.70,WSW,242,16.1,16.1,80,0.00,CLR,,0.00,WeatherDisplay:10.37,2017-12-15 08:12:00,
2017-12-15 09:17:00,62.2,56.0,29.70,WSW,239,15.0,15.0,80,0.00,CLR,,0.00,WeatherDisplay:10.37,2017-12-15 08:17:00,
2017-12-15 09:22:00,62.1,55.5,29.70,SW,236,14.0,14.0,79,0.00,CLR,,0.00,WeatherDisplay:10.37,2017-12-15 08:22:00,
2017-12-15 09:27:00,62.3,55.4,29.70,SW,228,12.7,12.7,78,0.00,CLR,,0.00,WeatherDisplay:10.37,2017-12-15 08:27:00,
2017-12-15 09:32:00,62.4,55.4,29.70,WSW,246,18.4,18.4,78,0.00,CLR,,0.00,WeatherDisplay:10.37,2017-12-15 08:32:00,
2017-12-15 09:37:00,62.6,55.6,29.70,WSW,255,17.3,17.3,78,0.00,CLR,,0.00,WeatherDisplay:10.37,2017-12-15 08:37:00,
2017-12-15 09:40:00,62.6,55.6,29.70,SW,229,13.8,13.8,78,0.00,CLR,,0.00,WeatherDisplay:10.37,2017-12-15 08:40:00,
2017-12-15 09:42:00,62.6,55.6,29.70,SW,229,13.8,13.8,78,0.00,CLR,,0.00,WeatherDisplay:10.37,2017-12-15 08:42:00,
2017-12-15 09:47:00,62.6,55.6,29.70,SW,229,13.8,13.8,78,0.00,CLR,,0.00,WeatherDisplay:10.37,2017-12-15 08:47:00,
2017-12-15 10:31:00,63.2,55.1,29.72,WSW,252,18.0,18.0,75,0.00,CLR,,0.00,WeatherDisplay:10.37,2017-12-15 09:31:00,
2017-12-15 10:36:00,63.3,55.6,29.71,WSW,248,8.1,8.1,76,0.00,CLR,,0.00,WeatherDisplay:10.37,2017-12-15 09:36:00,
2017-12-15 10:41:00,63.4,55.7,29.72,WSW,248,16.1,16.1,76,0.00,CLR,,0.00,WeatherDisplay:10.37,2017-12-15 09:41:00,
2017-12-15 10:46:00,63.3,55.6,29.72,WSW,248,15.0,15.0,76,0.00,CLR,,0.00,WeatherDisplay:10.37,2017-12-15 09:46:00,
2017-12-15 10:51:00,63.2,55.5,29.72,SW,227,16.1,16.1,76,0.00,CLR,,0.00,WeatherDisplay:10.37,2017-12-15 09:51:00,
2017-12-15 10:56:00,63.2,55.5,29.71,SW,231,15.0,15.0,76,0.00,CLR,,0.00,WeatherDisplay:10.37,2017-12-15 09:56:00,
2017-12-15 11:02:00,63.2,55.5,29.71,SW,226,13.8,13.8,76,0.00,CLR,,0.00,WeatherDisplay:10.37,2017-12-15 10:02:00,
2017-12-15 11:07:00,63.2,55.5,29.71,West,260,12.7,12.7,76,0.00,CLR,,0.00,WeatherDisplay:10.37,2017-12-15 10:07:00,
2017-12-15 11:12:00,63.2,55.9,29.71,SW,236,9.2,9.2,77,0.00,CLR,,0.00,WeatherDisplay:10.37,2017-12-15 10:12:00,
2017-12-15 11:17:00,63.3,56.0,29.71,WSW,240,10.4,10.4,77,0.00,CLR,,0.00,WeatherDisplay:10.37,2017-12-15 10:17:00,
2017-12-15 11:22:00,63.4,56.1,29.71,West,281,8.1,8.1,77,0.00,CLR,,0.00,WeatherDisplay:10.37,2017-12-15 10:22:00,
2017-12-15 11:27:00,63.1,54.7,29.71,WNW,303,12.7,12.7,74,0.00,CLR,,0.00,WeatherDisplay:10.37,2017-12-15 10:27:00,
2017-12-15 11:32:00,62.2,54.2,29.72,NW,313,13.8,13.8,75,0.00,CLR,,0.00,WeatherDisplay:10.37,2017-12-15 10:32:00,
2017-12-15 11:37:00,61.1,53.8,29.73,NW,304,17.3,17.3,77,0.00,CLR,,0.00,WeatherDisplay:10.37,2017-12-15 10:37:00,
2017-12-15 11:42:00,60.4,53.9,29.72,NW,318,11.5,11.5,79,0.00,CLR,,0.00,WeatherDisplay:10.37,2017-12-15 10:42:00,
2017-12-15 11:47:00,59.2,52.7,29.72,NW,311,11.5,11.5,79,0.00,CLR,,0.00,WeatherDisplay:10.37,2017-12-15 10:47:00,
2017-12-15 11:52:00,58.4,52.6,29.73,WNW,296,3.5,3.5,81,0.00,CLR,,0.00,WeatherDisplay:10.37,2017-12-15 10:52:00,
2017-12-15 11:57:00,58.0,52.5,29.73,West,271,6.9,6.9,82,0.02,RA,,0.02,WeatherDisplay:10.37,2017-12-15 10:57:00,
2017-12-15 12:02:00,57.7,52.6,29.72,NNW,330,6.9,6.9,83,0.02,RA,,0.02,WeatherDisplay:10.37,2017-12-15 11:02:00,
2017-12-15 12:07:00,57.7,52.6,29.72,NNW,340,9.2,9.2,83,0.02,RA,,0.02,WeatherDisplay:10.37,2017-12-15 11:07:00,
2017-12-15 12:12:00,57.8,52.0,29.72,NW,313,11.5,11.5,81,0.02,CLR,,0.02,WeatherDisplay:10.37,2017-12-15 11:12:00,
2017-12-15 12:17:00,58.1,52.0,29.72,NW,309,11.5,11.5,80,0.05,RA,,0.05,WeatherDisplay:10.37,2017-12-15 11:17:00,
2017-12-15 12:22:00,58.2,51.7,29.71,WNW,291,11.5,11.5,79,0.05,RA,,0.05,WeatherDisplay:10.37,2017-12-15 11:22:00,
2017-12-15 12:27:00,58.2,51.4,29.72,NW,319,13.8,13.8,78,0.05,CLR,,0.05,WeatherDisplay:10.37,2017-12-15 11:27:00,
2017-12-15 12:32:00,58.2,51.7,29.72,NNW,332,13.8,13.8,79,0.05,CLR,,0.05,WeatherDisplay:10.37,2017-12-15 11:32:00,